Time;durP1;ratioP1;P1;durP2;ratioP2;P2;SDS_P1;SDS_P2;PMS_P1;PMS_P2;Temp;Humidity;BMP_temperature;BMP_pressure;BME280_temperature;BME280_humidity;BME280_pressure;Samples;Min_cycle;Max_cycle;Signal;HPM_P1;HPM_P2
2023/10/26 00:02:26;;;;;;;1.23;0.47;;;;;;;;;;5049007;28;20215;-60
2023/10/26 00:04:53;;;;;;;1.23;0.53;;;;;;;;;;5049230;28;20204;-60
2023/10/26 00:07:22;;;;;;;0.50;0.50;;;;;;;;;;5050147;28;20228;-60
2023/10/26 00:09:49;;;;;;;0.47;0.47;;;;;;;;;;5048246;28;20204;-59
2023/10/26 00:12:16;;;;;;;0.60;0.60;;;;;;;;;;5049491;28;20203;-60
2023/10/26 00:14:43;;;;;;;0.53;0.53;;;;;;;;;;5049330;28;20741;-60
2023/10/26 00:17:12;;;;;;;0.43;0.43;;;;;;;;;;5049959;28;20214;-59
2023/10/26 00:19:39;;;;;;;4.43;0.60;;;;;;;;;;5049072;28;20261;-60
2023/10/26 00:22:06;;;;;;;0.50;0.50;;;;;;;;;;5049890;28;20695;-60
2023/10/26 00:24:33;;;;;;;1.30;0.70;;;;;;;;;;5049535;28;20200;-60
2023/10/26 00:27:00;;;;;;;0.60;0.60;;;;;;;;;;5049235;28;20208;-60
2023/10/26 00:29:27;;;;;;;0.60;0.60;;;;;;;;;;5049658;28;20208;-60
2023/10/26 00:31:54;;;;;;;1.10;1.03;;;;;;;;;;5049010;28;20208;-60
2023/10/26 00:34:22;;;;;;;1.13;0.50;;;;;;;;;;5048779;28;20200;-60
2023/10/26 00:36:49;;;;;;;1.23;0.70;;;;;;;;;;5049408;28;20561;-60
2023/10/26 00:39:16;;;;;;;0.73;0.60;;;;;;;;;;5049448;28;20557;-60
2023/10/26 00:41:43;;;;;;;0.63;0.60;;;;;;;;;;5048452;28;20236;-60
2023/10/26 00:44:10;;;;;;;2.30;0.90;;;;;;;;;;5029480;28;20216;-60
2023/10/26 00:46:37;;;;;;;0.80;0.80;;;;;;;;;;5048440;28;20610;-60
2023/10/26 00:49:06;;;;;;;0.60;0.60;;;;;;;;;;5048722;28;20207;-60
2023/10/26 00:51:34;;;;;;;1.07;1.07;;;;;;;;;;5049041;28;20262;-60
2023/10/26 00:54:02;;;;;;;0.63;0.63;;;;;;;;;;5048693;28;20555;-60
2023/10/26 00:56:29;;;;;;;0.50;0.50;;;;;;;;;;5048637;28;20683;-60
2023/10/26 00:58:57;;;;;;;0.70;0.70;;;;;;;;;;5048933;28;20211;-60
2023/10/26 01:01:24;;;;;;;0.50;0.50;;;;;;;;;;5049061;28;20227;-60
2023/10/26 01:03:52;;;;;;;0.50;0.50;;;;;;;;;;5048091;28;20207;-60
2023/10/26 01:06:19;;;;;;;0.40;0.40;;;;;;;;;;5036966;28;20230;-61
2023/10/26 01:08:48;;;;;;;1.70;0.60;;;;;;;;;;5048849;28;20211;-60
2023/10/26 01:11:15;;;;;;;0.60;0.60;;;;;;;;;;5048583;28;20215;-60
2023/10/26 01:13:42;;;;;;;0.50;0.50;;;;;;;;;;5047836;28;20866;-61
2023/10/26 01:16:09;;;;;;;0.60;0.60;;;;;;;;;;5048320;28;20282;-60
2023/10/26 01:18:36;;;;;;;0.70;0.70;;;;;;;;;;5048499;28;20211;-60
2023/10/26 01:21:03;;;;;;;0.67;0.60;;;;;;;;;;5048422;28;20265;-60
2023/10/26 01:23:32;;;;;;;0.70;0.70;;;;;;;;;;5048495;28;20306;-60
2023/10/26 01:25:59;;;;;;;3.70;0.80;;;;;;;;;;5047952;28;20203;-59
2023/10/26 01:28:26;;;;;;;0.70;0.70;;;;;;;;;;5048099;28;20326;-60
2023/10/26 01:30:53;;;;;;;0.50;0.50;;;;;;;;;;5048104;28;20206;-60
2023/10/26 01:33:21;;;;;;;0.67;0.67;;;;;;;;;;5047658;28;20204;-60
2023/10/26 01:35:48;;;;;;;0.77;0.77;;;;;;;;;;5047574;28;20211;-60
2023/10/26 01:38:15;;;;;;;0.90;0.90;;;;;;;;;;5048238;28;20227;-60
2023/10/26 01:40:43;;;;;;;0.90;0.90;;;;;;;;;;5047798;28;20570;-61
2023/10/26 01:43:11;;;;;;;1.00;1.00;;;;;;;;;;5047738;28;20443;-60
2023/10/26 01:45:38;;;;;;;2.10;1.00;;;;;;;;;;5048140;28;20199;-60
2023/10/26 01:48:05;;;;;;;3.80;0.93;;;;;;;;;;5047676;28;20215;-60
2023/10/26 01:50:32;;;;;;;1.00;1.00;;;;;;;;;;5047461;28;20424;-61
2023/10/26 01:52:59;;;;;;;1.10;1.10;;;;;;;;;;5048152;28;20207;-60
2023/10/26 01:55:27;;;;;;;1.07;1.07;;;;;;;;;;5047236;28;20581;-60
2023/10/26 01:57:55;;;;;;;1.20;1.20;;;;;;;;;;5047614;28;20207;-60
2023/10/26 02:00:22;;;;;;;1.17;1.17;;;;;;;;;;5048182;28;20231;-60
2023/10/26 02:02:49;;;;;;;1.47;1.30;;;;;;;;;;5047440;28;20572;-60
2023/10/26 02:05:17;;;;;;;1.07;1.07;;;;;;;;;;5046119;28;20442;-60
2023/10/26 02:07:44;;;;;;;2.30;0.97;;;;;;;;;;5047818;28;20231;-60
2023/10/26 02:10:14;;;;;;;1.40;1.40;;;;;;;;;;5027580;28;20572;-60
2023/10/26 02:12:41;;;;;;;1.77;1.13;;;;;;;;;;5033507;28;20235;-60
2023/10/26 02:15:10;;;;;;;1.23;0.97;;;;;;;;;;5047743;28;20256;-60
2023/10/26 02:17:37;;;;;;;1.10;1.10;;;;;;;;;;5047883;28;20208;-60
2023/10/26 02:20:04;;;;;;;1.30;1.30;;;;;;;;;;5047254;28;20204;-60
2023/10/26 02:22:31;;;;;;;1.80;1.20;;;;;;;;;;5047461;28;20744;-60
2023/10/26 02:24:58;;;;;;;1.10;1.10;;;;;;;;;;5047391;28;20211;-61
2023/10/26 02:27:25;;;;;;;1.10;1.10;;;;;;;;;;5047365;28;20405;-61
2023/10/26 02:29:52;;;;;;;1.30;1.30;;;;;;;;;;5047505;28;20207;-61
2023/10/26 02:32:20;;;;;;;1.70;1.70;;;;;;;;;;5047475;28;20567;-61
2023/10/26 02:34:47;;;;;;;1.77;1.63;;;;;;;;;;5047598;28;20207;-61
2023/10/26 02:37:14;;;;;;;1.33;1.33;;;;;;;;;;5047739;28;20208;-60
2023/10/26 02:39:41;;;;;;;1.80;1.43;;;;;;;;;;5047383;28;20208;-61
2023/10/26 02:42:09;;;;;;;1.67;1.63;;;;;;;;;;5046893;28;20223;-60
2023/10/26 02:44:36;;;;;;;1.60;1.60;;;;;;;;;;5047850;28;20212;-60
2023/10/26 02:47:03;;;;;;;1.30;1.30;;;;;;;;;;5047789;28;20207;-60
2023/10/26 02:49:31;;;;;;;1.20;1.20;;;;;;;;;;5047063;28;20212;-60
2023/10/26 02:51:58;;;;;;;1.20;1.20;;;;;;;;;;5047189;28;20668;-60
2023/10/26 02:54:27;;;;;;;1.50;1.50;;;;;;;;;;5047743;28;20214;-59
2023/10/26 02:56:54;;;;;;;1.40;1.30;;;;;;;;;;5047437;28;20250;-60
2023/10/26 02:59:21;;;;;;;1.30;1.30;;;;;;;;;;5047144;28;20211;-61
2023/10/26 03:01:48;;;;;;;1.67;1.67;;;;;;;;;;5047046;28;20707;-60
2023/10/26 03:04:15;;;;;;;1.67;1.60;;;;;;;;;;5027124;28;20216;-60
2023/10/26 03:06:44;;;;;;;1.50;1.50;;;;;;;;;;5027367;28;20236;-60
2023/10/26 03:09:13;;;;;;;1.97;1.87;;;;;;;;;;5042030;28;20219;-60
2023/10/26 03:11:40;;;;;;;1.60;1.60;;;;;;;;;;5046852;28;20200;-60
2023/10/26 03:14:07;;;;;;;1.67;1.67;;;;;;;;;;5046253;28;20520;-60
2023/10/26 03:16:34;;;;;;;1.83;1.73;;;;;;;;;;5047047;28;20215;-60
2023/10/26 03:19:01;;;;;;;1.90;1.80;;;;;;;;;;5046855;28;20212;-60
2023/10/26 03:21:30;;;;;;;1.70;1.63;;;;;;;;;;5046662;28;20234;-60
2023/10/26 03:23:59;;;;;;;2.03;1.93;;;;;;;;;;5047025;28;20286;-60
2023/10/26 03:26:26;;;;;;;1.57;1.57;;;;;;;;;;5047012;28;20208;-60
2023/10/26 03:28:53;;;;;;;1.73;1.70;;;;;;;;;;5046920;28;20212;-60
2023/10/26 03:31:20;;;;;;;1.70;1.60;;;;;;;;;;5047208;28;20231;-60
2023/10/26 03:33:47;;;;;;;1.63;1.63;;;;;;;;;;5046686;28;20196;-60
2023/10/26 03:36:15;;;;;;;2.07;1.97;;;;;;;;;;5047549;28;20215;-60
2023/10/26 03:38:42;;;;;;;1.63;1.63;;;;;;;;;;5050797;28;20239;-60
2023/10/26 03:41:10;;;;;;;1.30;1.30;;;;;;;;;;5050184;28;20224;-59
2023/10/26 03:43:37;;;;;;;1.50;1.50;;;;;;;;;;5049772;28;20195;-60
2023/10/26 03:46:05;;;;;;;1.70;1.70;;;;;;;;;;5050566;28;20216;-60
2023/10/26 03:48:34;;;;;;;1.60;1.60;;;;;;;;;;5050652;28;20231;-60
2023/10/26 03:51:01;;;;;;;6.57;1.57;;;;;;;;;;5050075;28;20217;-60
2023/10/26 03:53:28;;;;;;;1.40;1.40;;;;;;;;;;5049901;28;20208;-60
2023/10/26 03:55:55;;;;;;;1.20;1.20;;;;;;;;;;5050592;28;20587;-60
2023/10/26 03:58:24;;;;;;;1.40;1.30;;;;;;;;;;5050076;28;20215;-60
2023/10/26 04:00:52;;;;;;;1.27;1.27;;;;;;;;;;5049499;28;20234;-61
2023/10/26 04:03:19;;;;;;;1.30;1.30;;;;;;;;;;5050227;28;20207;-60
2023/10/26 04:05:46;;;;;;;1.33;1.33;;;;;;;;;;5047880;28;20224;-60
2023/10/26 04:08:13;;;;;;;1.60;1.60;;;;;;;;;;5049943;28;20604;-61
2023/10/26 04:10:40;;;;;;;1.37;1.37;;;;;;;;;;5050023;28;20265;-60
2023/10/26 04:13:07;;;;;;;1.67;1.67;;;;;;;;;;5042775;28;20210;-60
2023/10/26 04:15:35;;;;;;;1.80;1.80;;;;;;;;;;5048815;28;20261;-60
2023/10/26 04:18:05;;;;;;;1.83;1.73;;;;;;;;;;5049866;28;20207;-60
2023/10/26 04:20:32;;;;;;;1.47;1.47;;;;;;;;;;5049682;28;20210;-59
2023/10/26 04:22:59;;;;;;;1.30;1.30;;;;;;;;;;5049540;28;20212;-60
2023/10/26 04:25:28;;;;;;;1.90;1.80;;;;;;;;;;5048901;28;20199;-60
2023/10/26 04:27:56;;;;;;;3.20;1.47;;;;;;;;;;5049460;28;20203;-60
2023/10/26 04:30:23;;;;;;;2.40;1.67;;;;;;;;;;5049036;28;20273;-60
2023/10/26 04:32:52;;;;;;;1.60;1.60;;;;;;;;;;5050150;28;20214;-60
2023/10/26 04:35:20;;;;;;;1.50;1.50;;;;;;;;;;5049656;28;20204;-60
2023/10/26 04:37:47;;;;;;;1.60;1.40;;;;;;;;;;5048361;28;20302;-59
2023/10/26 04:40:14;;;;;;;2.67;1.50;;;;;;;;;;5049808;28;20207;-60
2023/10/26 04:42:41;;;;;;;1.20;1.20;;;;;;;;;;5049569;28;20227;-60
2023/10/26 04:45:08;;;;;;;2.00;1.30;;;;;;;;;;5049221;28;20207;-60
2023/10/26 04:47:35;;;;;;;1.47;1.10;;;;;;;;;;5048476;28;20207;-60
2023/10/26 04:50:04;;;;;;;1.30;1.30;;;;;;;;;;5045432;28;20203;-60
2023/10/26 04:52:32;;;;;;;1.00;1.00;;;;;;;;;;5048860;28;20211;-60
2023/10/26 04:54:59;;;;;;;1.43;1.33;;;;;;;;;;5044168;28;20218;-60
2023/10/26 04:57:26;;;;;;;1.43;1.43;;;;;;;;;;5049452;28;20244;-60
2023/10/26 04:59:53;;;;;;;1.40;1.40;;;;;;;;;;5048702;28;20652;-60
2023/10/26 05:02:20;;;;;;;1.40;1.40;;;;;;;;;;5048193;28;20234;-61
2023/10/26 05:04:47;;;;;;;1.20;1.20;;;;;;;;;;5049358;28;20216;-60
2023/10/26 05:07:15;;;;;;;1.30;1.30;;;;;;;;;;5041924;28;20247;-59
2023/10/26 05:09:42;;;;;;;1.30;1.30;;;;;;;;;;5047653;28;20215;-60
2023/10/26 05:12:09;;;;;;;1.10;1.10;;;;;;;;;;5048831;28;20207;-60
2023/10/26 05:14:36;;;;;;;1.50;1.40;;;;;;;;;;5048523;28;20243;-60
2023/10/26 05:17:03;;;;;;;0.93;0.93;;;;;;;;;;5048826;28;20215;-61
2023/10/26 05:19:30;;;;;;;0.90;0.90;;;;;;;;;;5049133;28;20215;-60
2023/10/26 05:21:57;;;;;;;0.97;0.97;;;;;;;;;;5048546;28;20759;-61
2023/10/26 05:24:25;;;;;;;0.90;0.90;;;;;;;;;;5048546;28;20204;-61
2023/10/26 05:26:52;;;;;;;1.50;0.90;;;;;;;;;;5046870;28;20231;-60
2023/10/26 05:29:19;;;;;;;1.00;1.00;;;;;;;;;;5046038;28;20219;-60
2023/10/26 05:31:46;;;;;;;1.20;1.20;;;;;;;;;;5047541;28;20222;-60
2023/10/26 05:34:14;;;;;;;1.90;1.00;;;;;;;;;;5048345;28;20554;-60
2023/10/26 05:36:41;;;;;;;1.10;1.10;;;;;;;;;;5047390;28;20203;-60
2023/10/26 05:39:08;;;;;;;1.50;1.10;;;;;;;;;;5048134;28;20220;-60
2023/10/26 05:41:35;;;;;;;2.97;0.77;;;;;;;;;;5048128;28;20353;-60
2023/10/26 05:44:02;;;;;;;0.87;0.87;;;;;;;;;;5042296;28;20354;-58
2023/10/26 05:46:29;;;;;;;1.17;1.10;;;;;;;;;;5048043;28;20277;-60
2023/10/26 05:48:56;;;;;;;0.80;0.80;;;;;;;;;;5048028;28;20261;-60
2023/10/26 05:51:23;;;;;;;0.83;0.83;;;;;;;;;;5047824;28;20335;-59
2023/10/26 05:53:50;;;;;;;1.33;0.80;;;;;;;;;;5048418;28;20582;-59
2023/10/26 05:56:17;;;;;;;0.90;0.90;;;;;;;;;;5047981;28;20211;-60
2023/10/26 05:58:46;;;;;;;1.00;0.87;;;;;;;;;;5046541;28;20204;-61
2023/10/26 06:01:13;;;;;;;0.80;0.80;;;;;;;;;;5047603;28;20223;-61
2023/10/26 06:03:40;;;;;;;1.43;0.70;;;;;;;;;;5045777;28;20200;-61
2023/10/26 06:06:07;;;;;;;1.43;0.80;;;;;;;;;;5047449;28;20285;-60
2023/10/26 06:08:34;;;;;;;1.50;0.80;;;;;;;;;;5048031;28;20218;-61
2023/10/26 06:11:01;;;;;;;1.60;0.90;;;;;;;;;;5047614;28;20222;-61
2023/10/26 06:13:28;;;;;;;1.60;0.80;;;;;;;;;;5047205;28;20204;-61
2023/10/26 06:15:56;;;;;;;0.70;0.70;;;;;;;;;;5047694;28;20219;-61
2023/10/26 06:18:24;;;;;;;0.70;0.70;;;;;;;;;;5047479;28;20215;-61
2023/10/26 06:20:57;;;;;;;2.27;0.80;;;;;;;;;;5047312;28;20211;-61
2023/10/26 06:23:24;;;;;;;0.80;0.80;;;;;;;;;;5047221;28;20258;-61
2023/10/26 06:25:58;;;;;;;0.90;0.90;;;;;;;;;;5047802;28;20235;-60
2023/10/26 06:28:25;;;;;;;2.30;1.07;;;;;;;;;;5047522;28;20306;-60
2023/10/26 06:30:52;;;;;;;1.90;0.80;;;;;;;;;;5045113;28;20207;-60
2023/10/26 06:33:20;;;;;;;0.77;0.77;;;;;;;;;;5046875;28;20203;-61
2023/10/26 06:35:47;;;;;;;0.83;0.83;;;;;;;;;;5046517;28;20207;-61
2023/10/26 06:38:14;;;;;;;1.10;1.00;;;;;;;;;;5047222;28;20664;-60
2023/10/26 06:40:44;;;;;;;2.63;1.00;;;;;;;;;;5047004;28;20211;-61
2023/10/26 06:43:11;;;;;;;0.97;0.73;;;;;;;;;;5047437;28;20265;-60
2023/10/26 06:45:38;;;;;;;2.27;0.80;;;;;;;;;;5047713;28;20204;-61
2023/10/26 06:48:06;;;;;;;1.00;1.00;;;;;;;;;;5047047;28;20211;-60
2023/10/26 06:50:34;;;;;;;2.20;1.00;;;;;;;;;;5046806;28;20222;-60
2023/10/26 06:53:01;;;;;;;2.30;1.13;;;;;;;;;;5047153;28;20204;-60
2023/10/26 06:55:33;;;;;;;0.83;0.83;;;;;;;;;;5046775;28;20203;-60
2023/10/26 06:58:00;;;;;;;1.43;1.43;;;;;;;;;;5046861;28;20291;-59
2023/10/26 07:00:27;;;;;;;0.90;0.90;;;;;;;;;;5047026;28;20220;-59
2023/10/26 07:02:54;;;;;;;0.93;0.93;;;;;;;;;;5047124;28;20223;-59
2023/10/26 07:05:21;;;;;;;0.90;0.90;;;;;;;;;;5046706;28;20363;-60
2023/10/26 07:07:49;;;;;;;0.87;0.87;;;;;;;;;;5046647;28;20296;-59
2023/10/26 07:10:18;;;;;;;4.20;1.17;;;;;;;;;;5047843;28;20224;-60
2023/10/26 07:12:45;;;;;;;0.97;0.97;;;;;;;;;;5050533;28;20587;-60
2023/10/26 07:15:13;;;;;;;0.90;0.90;;;;;;;;;;5050311;28;20243;-59
2023/10/26 07:17:40;;;;;;;2.93;1.03;;;;;;;;;;5050775;28;20219;-59
2023/10/26 07:20:08;;;;;;;1.80;0.80;;;;;;;;;;5050140;28;20236;-59
2023/10/26 07:22:39;;;;;;;1.63;1.03;;;;;;;;;;5049639;28;20243;-62
2023/10/26 07:25:09;;;;;;;0.77;0.77;;;;;;;;;;5050008;28;20208;-61
2023/10/26 07:27:37;;;;;;;0.90;0.90;;;;;;;;;;5049057;28;20576;-60
2023/10/26 07:30:04;;;;;;;0.93;0.93;;;;;;;;;;5048870;28;20578;-60
2023/10/26 07:32:32;;;;;;;0.90;0.90;;;;;;;;;;5049801;28;20306;-60
2023/10/26 07:35:01;;;;;;;1.43;0.80;;;;;;;;;;5044819;28;20208;-60
2023/10/26 07:37:29;;;;;;;0.90;0.90;;;;;;;;;;5030313;28;20270;-60
2023/10/26 07:39:56;;;;;;;1.63;0.80;;;;;;;;;;5049546;28;20637;-60
2023/10/26 07:42:25;;;;;;;0.80;0.80;;;;;;;;;;5050000;28;20219;-60
2023/10/26 07:44:54;;;;;;;1.97;0.83;;;;;;;;;;5049872;28;20216;-60
2023/10/26 07:47:21;;;;;;;1.83;1.07;;;;;;;;;;5048952;28;20200;-60
2023/10/26 07:49:48;;;;;;;0.60;0.60;;;;;;;;;;5049258;28;20424;-60
2023/10/26 07:52:16;;;;;;;2.20;0.80;;;;;;;;;;5049940;28;20204;-61
2023/10/26 07:54:44;;;;;;;0.70;0.70;;;;;;;;;;5049688;28;20210;-60
2023/10/26 07:57:11;;;;;;;0.80;0.80;;;;;;;;;;5045313;28;20802;-60
2023/10/26 07:59:39;;;;;;;0.60;0.60;;;;;;;;;;5030072;28;20672;-59
2023/10/26 08:02:07;;;;;;;1.10;0.73;;;;;;;;;;5029573;28;20224;-60
2023/10/26 08:04:34;;;;;;;0.80;0.80;;;;;;;;;;5029271;28;20718;-60
2023/10/26 08:07:01;;;;;;;1.07;0.70;;;;;;;;;;5029929;28;20236;-60
2023/10/26 08:09:32;;;;;;;1.10;0.80;;;;;;;;;;5046387;28;20235;-60
2023/10/26 08:11:59;;;;;;;2.30;0.75;;;;;;;;;;5034676;28;20239;-60
2023/10/26 08:14:27;;;;;;;0.85;0.85;;;;;;;;;;5029055;28;20621;-60
2023/10/26 08:16:56;;;;;;;0.80;0.80;;;;;;;;;;5029920;28;20212;-67
2023/10/26 08:19:23;;;;;;;0.77;0.77;;;;;;;;;;5029641;28;20209;-60
2023/10/26 08:21:50;;;;;;;0.50;0.50;;;;;;;;;;5028419;28;20350;-60
2023/10/26 08:24:17;;;;;;;1.37;0.70;;;;;;;;;;5029973;28;20204;-60
2023/10/26 08:26:44;;;;;;;0.77;0.70;;;;;;;;;;5029062;28;20200;-60
2023/10/26 08:29:11;;;;;;;2.43;0.80;;;;;;;;;;5028979;28;20211;-60
2023/10/26 08:31:39;;;;;;;0.70;0.70;;;;;;;;;;5029381;28;20213;-60
2023/10/26 08:34:08;;;;;;;0.60;0.60;;;;;;;;;;5029197;28;20205;-60
2023/10/26 08:36:35;;;;;;;0.80;0.80;;;;;;;;;;5028756;28;20341;-60
2023/10/26 08:39:02;;;;;;;0.70;0.70;;;;;;;;;;5042321;28;20698;-61
2023/10/26 08:41:32;;;;;;;0.60;0.60;;;;;;;;;;5048662;28;20687;-60
2023/10/26 08:44:00;;;;;;;2.50;0.60;;;;;;;;;;5037756;28;20228;-60
2023/10/26 08:46:28;;;;;;;1.20;0.77;;;;;;;;;;5045619;28;20566;-60
2023/10/26 08:48:56;;;;;;;1.38;0.60;;;;;;;;;;5049099;28;20277;-61
2023/10/26 08:51:24;;;;;;;0.95;0.57;;;;;;;;;;5048427;28;20223;-58
2023/10/26 08:53:51;;;;;;;1.48;0.60;;;;;;;;;;5048098;28;20219;-59
2023/10/26 08:56:20;;;;;;;0.63;0.60;;;;;;;;;;5048690;28;20211;-58
2023/10/26 08:58:48;;;;;;;0.70;0.70;;;;;;;;;;5048395;28;20211;-59
2023/10/26 09:01:16;;;;;;;1.65;0.68;;;;;;;;;;5047798;28;20216;-57
2023/10/26 09:03:43;;;;;;;0.85;0.65;;;;;;;;;;5048222;28;20274;-58
2023/10/26 09:06:10;;;;;;;0.75;0.75;;;;;;;;;;5048562;28;20230;-58
2023/10/26 09:08:38;;;;;;;0.82;0.82;;;;;;;;;;5047720;28;20219;-58
2023/10/26 09:11:21;;;;;;;1.55;0.65;;;;;;;;;;5048093;28;20222;-58
2023/10/26 09:13:48;;;;;;;0.85;0.57;;;;;;;;;;5048120;28;20235;-58
2023/10/26 09:16:15;;;;;;;2.83;0.68;;;;;;;;;;5047546;28;20273;-58
2023/10/26 09:18:49;;;;;;;0.65;0.65;;;;;;;;;;5048422;28;20215;-58
2023/10/26 09:21:16;;;;;;;0.50;0.50;;;;;;;;;;5048167;28;20238;-59
2023/10/26 09:23:46;;;;;;;2.15;0.70;;;;;;;;;;5048091;28;20646;-59
2023/10/26 09:26:13;;;;;;;0.63;0.50;;;;;;;;;;5047697;28;20208;-58
2023/10/26 09:28:54;;;;;;;0.40;0.40;;;;;;;;;;5047867;28;20310;-59
2023/10/26 09:31:21;;;;;;;0.50;0.50;;;;;;;;;;5047596;28;20210;-61
2023/10/26 09:33:48;;;;;;;1.65;0.60;;;;;;;;;;5045748;28;20227;-59
2023/10/26 09:36:17;;;;;;;0.50;0.50;;;;;;;;;;5047907;28;20211;-58
2023/10/26 09:38:47;;;;;;;3.60;0.63;;;;;;;;;;5047127;28;20203;-59
2023/10/26 09:41:15;;;;;;;0.60;0.60;;;;;;;;;;5046607;28;20218;-59
2023/10/26 09:43:42;;;;;;;0.45;0.45;;;;;;;;;;5046577;28;20241;-59
2023/10/26 09:46:09;;;;;;;0.50;0.50;;;;;;;;;;5047208;28;20208;-58
2023/10/26 09:48:36;;;;;;;0.75;0.55;;;;;;;;;;5047423;28;20215;-58
2023/10/26 09:51:04;;;;;;;0.77;0.77;;;;;;;;;;5047159;28;20211;-59
2023/10/26 09:53:33;;;;;;;0.70;0.70;;;;;;;;;;5047356;28;20204;-58
2023/10/26 09:56:02;;;;;;;3.30;0.60;;;;;;;;;;5046681;28;20234;-60
2023/10/26 09:58:32;;;;;;;0.73;0.73;;;;;;;;;;5046793;28;20729;-59
2023/10/26 10:00:59;;;;;;;0.52;0.50;;;;;;;;;;5046501;28;20434;-60
2023/10/26 10:03:28;;;;;;;2.60;0.60;;;;;;;;;;5044597;28;20256;-60
2023/10/26 10:05:56;;;;;;;0.60;0.60;;;;;;;;;;5035741;28;20227;-60
2023/10/26 10:08:44;;;;;;;0.73;0.73;;;;;;;;;;5039408;28;20707;-60
2023/10/26 10:11:19;;;;;;;0.68;0.60;;;;;;;;;;5001943;28;20209;-60
2023/10/26 10:13:46;;;;;;;0.50;0.50;;;;;;;;;;5027001;28;20243;-59
2023/10/26 10:16:45;;;;;;;1.10;0.82;;;;;;;;;;5042409;28;20212;-59
2023/10/26 10:19:19;;;;;;;0.90;0.90;;;;;;;;;;5034379;28;20691;-60
2023/10/26 10:21:47;;;;;;;0.43;0.43;;;;;;;;;;5046729;28;20581;-59
2023/10/26 10:24:29;;;;;;;0.60;0.60;;;;;;;;;;5046630;28;20255;-61
2023/10/26 10:27:10;;;;;;;0.63;0.60;;;;;;;;;;5046421;28;20212;-59
2023/10/26 10:29:37;;;;;;;0.90;0.68;;;;;;;;;;5044243;28;20420;-60
2023/10/26 10:32:05;;;;;;;0.77;0.77;;;;;;;;;;5047197;28;20215;-59
2023/10/26 10:34:35;;;;;;;1.45;0.55;;;;;;;;;;5047019;28;20214;-60
2023/10/26 10:37:15;;;;;;;3.10;0.50;;;;;;;;;;5046160;28;20200;-60
2023/10/26 10:40:00;;;;;;;1.05;0.80;;;;;;;;;;5045659;28;20289;-60
2023/10/26 10:42:29;;;;;;;1.02;1.02;;;;;;;;;;5046167;28;20207;-60
2023/10/26 10:44:56;;;;;;;1.45;0.50;;;;;;;;;;5044559;28;20226;-60
2023/10/26 10:47:28;;;;;;;3.13;0.70;;;;;;;;;;5050110;28;20675;-59
2023/10/26 10:50:14;;;;;;;1.45;0.60;;;;;;;;;;5050397;28;20199;-59
2023/10/26 10:52:42;;;;;;;0.85;0.50;;;;;;;;;;5047997;28;20813;-57
2023/10/26 10:55:09;;;;;;;0.45;0.45;;;;;;;;;;5050679;28;20676;-59
2023/10/26 10:57:51;;;;;;;0.50;0.50;;;;;;;;;;5049933;28;20195;-63
2023/10/26 11:00:19;;;;;;;0.60;0.57;;;;;;;;;;5049574;28;20219;-59
2023/10/26 11:02:47;;;;;;;0.95;0.50;;;;;;;;;;5050187;28;20682;-61
2023/10/26 11:05:15;;;;;;;2.05;0.70;;;;;;;;;;5051428;28;20215;-63
2023/10/26 11:07:42;;;;;;;1.00;0.60;;;;;;;;;;5050448;28;20692;-64
2023/10/26 11:10:09;;;;;;;0.80;0.60;;;;;;;;;;5049932;28;20298;-58
2023/10/26 11:12:37;;;;;;;2.65;0.50;;;;;;;;;;5051052;28;20207;-60
2023/10/26 11:15:05;;;;;;;0.88;0.60;;;;;;;;;;5050241;28;20232;-60
2023/10/26 11:17:33;;;;;;;1.08;0.63;;;;;;;;;;5045656;28;20204;-59
2023/10/26 11:20:00;;;;;;;0.60;0.60;;;;;;;;;;5050436;28;20215;-60
2023/10/26 11:22:27;;;;;;;0.85;0.85;;;;;;;;;;5050660;28;20295;-61
2023/10/26 11:24:54;;;;;;;0.80;0.80;;;;;;;;;;5050147;28;20234;-61
2023/10/26 11:27:22;;;;;;;1.00;1.00;;;;;;;;;;5050583;28;20219;-64
2023/10/26 11:30:03;;;;;;;6.47;1.02;;;;;;;;;;5049935;28;20582;-61
2023/10/26 11:32:31;;;;;;;1.75;1.40;;;;;;;;;;5045464;28;20627;-62
2023/10/26 11:35:06;;;;;;;1.30;1.30;;;;;;;;;;5050149;28;20231;-61
2023/10/26 11:37:34;;;;;;;1.48;1.38;;;;;;;;;;5046736;28;20227;-62
2023/10/26 11:40:01;;;;;;;1.90;1.70;;;;;;;;;;5050456;28;20672;-62
2023/10/26 11:42:43;;;;;;;2.08;1.98;;;;;;;;;;5049931;28;20212;-62
2023/10/26 11:45:13;;;;;;;1.80;1.80;;;;;;;;;;5049740;28;20235;-61
2023/10/26 11:47:50;;;;;;;1.90;1.90;;;;;;;;;;5049952;28;20599;-61
2023/10/26 11:50:23;;;;;;;2.92;1.60;;;;;;;;;;5050276;28;20203;-61
2023/10/26 11:52:51;;;;;;;1.67;1.67;;;;;;;;;;5050254;28;20215;-63
2023/10/26 11:55:19;;;;;;;2.97;1.75;;;;;;;;;;5049827;28;20204;-63
2023/10/26 11:57:46;;;;;;;1.90;1.80;;;;;;;;;;5048122;28;20272;-63
2023/10/26 12:00:15;;;;;;;2.30;1.38;;;;;;;;;;5049824;28;20220;-61
2023/10/26 12:02:43;;;;;;;2.47;2.05;;;;;;;;;;5049851;28;20203;-62
2023/10/26 12:05:15;;;;;;;1.90;1.80;;;;;;;;;;5048986;28;20228;-62
2023/10/26 12:07:42;;;;;;;2.47;2.20;;;;;;;;;;5031161;28;20607;-62
2023/10/26 12:10:09;;;;;;;1.80;1.70;;;;;;;;;;5045274;28;20262;-60
2023/10/26 12:12:37;;;;;;;2.20;2.10;;;;;;;;;;5049360;28;20574;-59
2023/10/26 12:15:04;;;;;;;1.92;1.83;;;;;;;;;;5044292;28;20847;-60
2023/10/26 12:17:33;;;;;;;3.22;2.58;;;;;;;;;;5032151;28;20295;-59
2023/10/26 12:20:00;;;;;;;2.10;2.10;;;;;;;;;;5033222;28;20269;-60
2023/10/26 12:22:27;;;;;;;2.50;2.40;;;;;;;;;;5042037;28;20208;-60
2023/10/26 12:24:55;;;;;;;2.40;2.30;;;;;;;;;;5031218;28;20220;-60
2023/10/26 12:27:22;;;;;;;2.60;2.50;;;;;;;;;;5040609;28;20289;-59
2023/10/26 12:29:49;;;;;;;2.70;2.50;;;;;;;;;;5048367;28;20219;-60
2023/10/26 12:32:16;;;;;;;2.92;2.72;;;;;;;;;;5048243;28;20203;-60
2023/10/26 12:34:45;;;;;;;3.80;3.50;;;;;;;;;;5049107;28;20298;-60
2023/10/26 12:37:12;;;;;;;3.33;3.13;;;;;;;;;;5047896;28;20212;-60
2023/10/26 12:39:39;;;;;;;5.22;2.80;;;;;;;;;;5048014;28;20204;-61
2023/10/26 12:42:06;;;;;;;3.70;2.50;;;;;;;;;;5048747;28;20215;-60
2023/10/26 12:44:33;;;;;;;2.00;1.90;;;;;;;;;;5048144;28;20232;-61
2023/10/26 12:47:00;;;;;;;2.22;2.05;;;;;;;;;;5045781;28;20667;-60
2023/10/26 12:49:27;;;;;;;2.20;2.20;;;;;;;;;;5048324;28;20216;-60
2023/10/26 12:51:56;;;;;;;4.18;2.63;;;;;;;;;;5040501;28;20595;-60
2023/10/26 12:54:23;;;;;;;2.72;2.60;;;;;;;;;;5043366;28;20216;-60
2023/10/26 12:56:50;;;;;;;3.25;2.63;;;;;;;;;;5031265;28;20209;-59
2023/10/26 12:59:17;;;;;;;3.13;2.97;;;;;;;;;;5027899;28;20645;-60
2023/10/26 13:01:44;;;;;;;4.38;3.38;;;;;;;;;;5027782;28;20262;-60
2023/10/26 13:04:11;;;;;;;3.03;2.83;;;;;;;;;;5040954;28;20234;-60
2023/10/26 13:06:39;;;;;;;4.85;3.20;;;;;;;;;;5046897;28;20239;-60
2023/10/26 13:09:07;;;;;;;4.43;3.47;;;;;;;;;;5045294;28;20215;-60
2023/10/26 13:11:34;;;;;;;3.35;3.15;;;;;;;;;;5047532;28;20208;-62
2023/10/26 13:14:01;;;;;;;3.33;3.13;;;;;;;;;;5047124;28;20227;-60
2023/10/26 13:16:28;;;;;;;6.68;3.92;;;;;;;;;;5046237;28;20203;-60
2023/10/26 13:18:55;;;;;;;4.35;3.50;;;;;;;;;;5028860;28;20213;-59
2023/10/26 13:21:22;;;;;;;5.40;4.05;;;;;;;;;;5030735;28;20262;-60
2023/10/26 13:23:49;;;;;;;8.18;4.25;;;;;;;;;;5028179;28;20234;-60
2023/10/26 13:26:19;;;;;;;3.97;3.78;;;;;;;;;;5028118;28;20205;-60
2023/10/26 13:28:46;;;;;;;4.20;3.90;;;;;;;;;;5042022;28;20208;-59
2023/10/26 13:31:13;;;;;;;5.03;4.40;;;;;;;;;;5027276;28;20794;-62
2023/10/26 13:33:40;;;;;;;4.97;4.57;;;;;;;;;;5044643;28;20203;-60
2023/10/26 13:36:07;;;;;;;4.35;4.05;;;;;;;;;;5044876;28;20668;-60
2023/10/26 13:38:34;;;;;;;4.50;4.20;;;;;;;;;;5046421;28;20234;-60
2023/10/26 13:41:01;;;;;;;5.43;4.40;;;;;;;;;;5048281;28;20227;-60
2023/10/26 13:43:29;;;;;;;4.57;4.28;;;;;;;;;;5046843;28;20685;-60
2023/10/26 13:45:57;;;;;;;4.65;4.35;;;;;;;;;;5047701;28;20227;-60
2023/10/26 13:48:24;;;;;;;5.00;4.65;;;;;;;;;;5028199;28;20214;-59
2023/10/26 13:50:51;;;;;;;4.65;4.22;;;;;;;;;;5041687;28;20204;-60
2023/10/26 13:53:18;;;;;;;4.43;3.95;;;;;;;;;;5028125;28;20212;-60
2023/10/26 13:55:45;;;;;;;5.45;4.07;;;;;;;;;;5046032;28;20245;-64
2023/10/26 13:58:12;;;;;;;5.35;4.43;;;;;;;;;;5046415;28;20663;-59
2023/10/26 14:00:41;;;;;;;9.23;4.68;;;;;;;;;;5045538;28;20219;-60
2023/10/26 14:03:08;;;;;;;5.13;4.00;;;;;;;;;;5047569;28;20214;-59
2023/10/26 14:05:37;;;;;;;4.47;4.18;;;;;;;;;;5028407;28;20649;-60
2023/10/26 14:08:04;;;;;;;4.63;4.38;;;;;;;;;;5041336;28;20218;-60
2023/10/26 14:10:31;;;;;;;5.57;4.85;;;;;;;;;;5044855;28;20687;-60
2023/10/26 14:12:58;;;;;;;5.77;4.47;;;;;;;;;;5044252;28;20265;-60
2023/10/26 14:15:27;;;;;;;5.05;4.75;;;;;;;;;;5044502;28;20904;-60
2023/10/26 14:17:55;;;;;;;5.22;4.55;;;;;;;;;;5037759;28;20208;-60
2023/10/26 14:20:22;;;;;;;5.20;4.70;;;;;;;;;;5024194;28;20224;-60
2023/10/26 14:22:49;;;;;;;4.95;4.55;;;;;;;;;;5029877;28;20520;-59
2023/10/26 14:25:16;;;;;;;5.37;4.63;;;;;;;;;;5044565;28;20285;-60
2023/10/26 14:27:43;;;;;;;9.77;7.03;;;;;;;;;;5044133;28;20219;-60
2023/10/26 14:30:11;;;;;;;6.78;5.57;;;;;;;;;;5043533;28;20961;-60
2023/10/26 14:32:38;;;;;;;5.30;4.78;;;;;;;;;;5044829;28;20212;-60
2023/10/26 14:35:07;;;;;;;5.15;4.65;;;;;;;;;;5044359;28;20313;-60
2023/10/26 14:37:34;;;;;;;6.20;4.63;;;;;;;;;;5044226;28;20216;-61
2023/10/26 14:40:01;;;;;;;5.57;5.07;;;;;;;;;;5044609;28;20212;-60
2023/10/26 14:42:28;;;;;;;5.97;4.90;;;;;;;;;;5044242;28;20202;-61
2023/10/26 14:44:56;;;;;;;5.45;4.90;;;;;;;;;;5043650;28;20231;-61
2023/10/26 14:47:23;;;;;;;5.25;4.90;;;;;;;;;;5043774;28;20203;-60
2023/10/26 14:49:50;;;;;;;5.40;5.00;;;;;;;;;;5044064;28;20214;-60